Time;durP1;ratioP1;P1;durP2;ratioP2;P2;SDS_P1;SDS_P2;PMS_P1;PMS_P2;Temp;Humidity;BMP_temperature;BMP_pressure;BME280_temperature;BME280_humidity;BME280_pressure;Samples;Min_cycle;Max_cycle;Signal;HPM_P1;HPM_P2
2023/03/17 00:03:28;;;;;;;12.82;5.05;;;;;;;4.34;37.95;100645.75;7711700;32;40429;-85
2023/03/17 00:07:46;;;;;;;12.50;6.03;;;;;;;4.12;38.06;100650.56;7697338;32;37886;-84
2023/03/17 00:12:05;;;;;;;10.68;5.75;;;;;;;3.83;38.58;100651.78;7711664;32;37158;-85
2023/03/17 00:16:24;;;;;;;9.32;5.37;;;;;;;4.07;39.04;100651.19;7711251;32;39729;-84
2023/03/17 00:20:41;;;;;;;13.23;5.82;;;;;;;3.81;39.46;100654.72;7683223;32;39975;-84
2023/03/17 00:24:57;;;;;;;9.45;4.85;;;;;;;4.02;38.86;100651.00;7684485;32;38511;-84
2023/03/17 00:29:15;;;;;;;6.72;4.70;;;;;;;3.92;38.55;100647.88;7684504;32;37549;-85
2023/03/17 00:33:33;;;;;;;9.23;5.50;;;;;;;3.93;38.87;100647.66;7684613;32;39328;-85
2023/03/17 00:37:51;;;;;;;12.43;5.72;;;;;;;3.82;37.18;100640.19;7683152;32;38966;-84
2023/03/17 00:42:08;;;;;;;10.90;5.57;;;;;;;3.79;37.25;100635.19;7684106;32;38738;-84
2023/03/17 00:46:27;;;;;;;10.40;4.95;;;;;;;3.67;37.17;100637.66;7684280;32;36812;-84
2023/03/17 00:50:45;;;;;;;9.93;5.53;;;;;;;3.93;36.90;100647.66;7682977;32;39826;-84
2023/03/17 00:55:02;;;;;;;10.85;5.53;;;;;;;3.78;38.07;100638.09;7683983;32;40262;-84
2023/03/17 00:59:24;;;;;;;8.85;5.25;;;;;;;3.83;37.94;100636.47;7683716;32;38662;-84
2023/03/17 01:03:40;;;;;;;10.38;4.95;;;;;;;3.78;37.54;100636.25;7683747;32;38227;-84
2023/03/17 01:07:57;;;;;;;13.95;5.35;;;;;;;3.80;37.51;100644.94;7682780;32;39313;-85
2023/03/17 01:12:13;;;;;;;10.32;5.15;;;;;;;3.71;38.29;100641.63;7683975;32;39687;-84
2023/03/17 01:16:30;;;;;;;10.00;5.30;;;;;;;3.46;39.20;100640.53;7683452;32;37557;-84
2023/03/17 01:20:47;;;;;;;12.40;5.95;;;;;;;3.58;38.95;100636.22;7709128;32;38582;-84
2023/03/17 01:25:03;;;;;;;10.48;5.60;;;;;;;3.49;39.19;100637.44;7713279;32;39445;-84
2023/03/17 01:29:20;;;;;;;11.75;6.32;;;;;;;3.52;39.54;100650.53;7699505;32;39602;-84
2023/03/17 01:33:36;;;;;;;8.95;5.60;;;;;;;3.39;40.19;100645.91;7699681;32;38089;-84
2023/03/17 01:37:54;;;;;;;10.23;5.22;;;;;;;3.26;40.42;100646.72;7699448;32;37034;-84
2023/03/17 01:42:10;;;;;;;10.85;5.82;;;;;;;3.23;40.61;100644.44;7713067;32;40218;-84
2023/03/17 01:46:32;;;;;;;9.15;5.22;;;;;;;3.24;40.60;100632.59;7713055;32;39983;-85
2023/03/17 01:50:49;;;;;;;11.10;6.20;;;;;;;3.22;41.58;100629.28;7713396;32;37621;-84
2023/03/17 01:55:11;;;;;;;10.63;5.70;;;;;;;3.18;42.63;100639.63;7713009;32;37201;-84
2023/03/17 01:59:32;;;;;;;9.23;5.40;;;;;;;3.18;42.55;100641.50;7699820;32;39340;-84
2023/03/17 02:03:49;;;;;;;12.02;6.12;;;;;;;3.11;43.61;100656.81;7699957;32;40464;-85
2023/03/17 02:08:11;;;;;;;7.00;4.87;;;;;;;3.03;43.66;100655.13;7712674;32;38861;-84
2023/03/17 02:12:28;;;;;;;11.80;5.68;;;;;;;3.01;45.16;100670.66;7699691;32;37128;-84
2023/03/17 02:16:44;;;;;;;11.65;5.75;;;;;;;3.00;44.16;100668.97;7699068;32;39115;-84
2023/03/17 02:21:37;;;;;;;14.13;5.78;;;;;;;2.60;43.18;100680.41;7712309;32;40719;-85
2023/03/17 02:25:54;;;;;;;10.70;6.00;;;;;;;2.79;46.13;100686.06;7708399;32;38725;-85
2023/03/17 02:30:13;;;;;;;12.43;6.40;;;;;;;2.81;46.40;100684.00;7712190;32;38170;-85
2023/03/17 02:34:30;;;;;;;12.75;6.05;;;;;;;3.02;45.52;100685.81;7712557;32;39304;-85
2023/03/17 02:38:47;;;;;;;9.32;5.47;;;;;;;3.08;45.26;100665.31;7698566;32;39910;-85
2023/03/17 02:43:04;;;;;;;8.73;5.72;;;;;;;2.94;45.77;100677.87;7712603;32;36355;-84
2023/03/17 02:47:20;;;;;;;12.82;5.85;;;;;;;2.86;45.96;100676.16;7712356;32;37026;-85
2023/03/17 02:51:37;;;;;;;12.05;6.03;;;;;;;2.76;45.82;100673.00;7712333;32;40029;-84
2023/03/17 02:55:54;;;;;;;10.38;5.90;;;;;;;2.83;46.28;100673.91;7712168;32;40418;-85
2023/03/17 03:00:12;;;;;;;11.40;6.03;;;;;;;2.53;46.65;100673.28;7712060;32;37703;-85
2023/03/17 03:04:29;;;;;;;11.18;5.78;;;;;;;2.60;47.39;100663.41;7711980;32;37253;-85
2023/03/17 03:08:45;;;;;;;10.90;5.80;;;;;;;2.81;46.71;100665.16;7712048;32;39497;-85
2023/03/17 03:13:02;;;;;;;10.57;5.62;;;;;;;2.43;48.46;100674.50;7698304;32;40504;-85
2023/03/17 03:17:19;;;;;;;13.02;6.00;;;;;;;2.75;47.32;100666.81;7711697;32;38214;-85
2023/03/17 03:21:36;;;;;;;10.18;5.50;;;;;;;2.62;47.67;100662.19;7711862;32;37195;-85
2023/03/17 03:25:52;;;;;;;13.68;6.15;;;;;;;2.75;46.57;100671.37;7711897;32;39776;-85
2023/03/17 03:30:09;;;;;;;9.82;5.15;;;;;;;2.50;47.25;100669.16;7711729;32;40815;-85
2023/03/17 03:34:26;;;;;;;12.18;6.28;;;;;;;2.52;47.32;100671.63;7711654;32;38650;-85
2023/03/17 03:38:43;;;;;;;11.05;6.53;;;;;;;2.68;47.01;100665.13;7697884;32;37075;-85
2023/03/17 03:42:59;;;;;;;12.15;6.03;;;;;;;2.61;47.62;100671.28;7710553;32;39415;-84
2023/03/17 03:47:27;;;;;;;10.77;5.75;;;;;;;2.65;47.78;100655.56;7699255;32;39918;-85
2023/03/17 03:51:44;;;;;;;9.38;5.78;;;;;;;2.57;47.97;100653.87;7711381;32;38361;-84
2023/03/17 03:56:00;;;;;;;13.68;6.30;;;;;;;2.50;48.06;100663.78;7711501;32;37835;-85
2023/03/17 04:00:17;;;;;;;10.95;5.80;;;;;;;2.54;48.47;100665.03;7711457;32;39288;-85
2023/03/17 04:04:33;;;;;;;10.60;6.20;;;;;;;2.48;49.11;100670.38;7711374;32;39950;-85
2023/03/17 04:08:50;;;;;;;12.60;6.30;;;;;;;2.42;48.73;100664.75;7698137;32;38150;-85
2023/03/17 04:13:07;;;;;;;11.77;6.18;;;;;;;2.37;49.27;100666.38;7711375;32;37316;-85
2023/03/17 04:17:23;;;;;;;8.20;5.82;;;;;;;2.45;48.54;100666.22;7697560;32;39372;-85
2023/03/17 04:21:40;;;;;;;13.05;6.55;;;;;;;2.38;48.75;100668.00;7711138;32;39729;-85
2023/03/17 04:25:57;;;;;;;13.65;5.97;;;;;;;2.31;49.24;100669.81;7710986;32;37675;-85
2023/03/17 04:30:15;;;;;;;10.15;5.57;;;;;;;2.38;49.07;100665.31;7711084;32;35760;-84
2023/03/17 04:34:32;;;;;;;8.98;5.82;;;;;;;2.35;48.68;100666.56;7711196;32;39159;-85
2023/03/17 04:38:48;;;;;;;9.82;5.97;;;;;;;2.49;48.30;100667.47;7710902;32;40531;-85
2023/03/17 04:43:05;;;;;;;10.88;5.55;;;;;;;2.33;48.60;100676.69;7710749;32;38089;-85
2023/03/17 04:47:21;;;;;;;15.60;6.20;;;;;;;2.33;48.09;100675.84;7710709;32;37228;-85
2023/03/17 04:51:37;;;;;;;11.85;6.05;;;;;;;2.24;47.75;100681.37;7710929;32;37369;-86
2023/03/17 04:55:55;;;;;;;12.88;6.25;;;;;;;2.29;47.48;100677.25;7710446;32;39631;-85
2023/03/17 05:00:12;;;;;;;12.43;6.00;;;;;;;2.27;47.61;100682.03;7710452;32;38039;-86
2023/03/17 05:04:28;;;;;;;9.88;6.00;;;;;;;2.29;47.48;100678.09;7710320;32;37212;-85
2023/03/17 05:08:47;;;;;;;10.95;6.43;;;;;;;2.35;47.99;100687.25;7710500;32;40244;-85
2023/03/17 05:13:03;;;;;;;11.02;6.47;;;;;;;2.04;50.16;100680.38;7710171;32;40786;-85
2023/03/17 05:17:20;;;;;;;16.90;7.45;;;;;;;2.31;49.48;100684.13;7709728;32;38669;-85
2023/03/17 05:21:36;;;;;;;12.35;6.10;;;;;;;2.17;49.93;100688.56;7709948;32;37417;-86
2023/03/17 05:25:53;;;;;;;17.15;6.32;;;;;;;2.29;49.71;100693.41;7709885;32;39365;-85
2023/03/17 05:30:10;;;;;;;12.73;6.10;;;;;;;2.12;49.33;100682.94;7709690;32;40915;-86
2023/03/17 05:34:26;;;;;;;10.15;5.65;;;;;;;2.24;49.85;100680.53;7710037;32;37874;-86
2023/03/17 05:38:43;;;;;;;11.80;6.00;;;;;;;2.29;47.76;100670.03;7709635;32;37739;-85
2023/03/17 05:43:00;;;;;;;8.80;6.10;;;;;;;2.29;49.19;100685.34;7709208;32;39404;-86
2023/03/17 05:47:16;;;;;;;11.68;6.07;;;;;;;2.02;49.96;100677.06;7709337;32;40090;-86
2023/03/17 05:51:33;;;;;;;10.40;6.03;;;;;;;2.04;50.12;100685.78;7709234;32;38090;-84
2023/03/17 05:55:52;;;;;;;10.32;5.68;;;;;;;2.30;49.75;100689.72;7709063;32;36842;-85
2023/03/17 06:00:09;;;;;;;12.95;6.75;;;;;;;2.30;50.04;100690.53;7709114;32;39123;-85
2023/03/17 06:04:27;;;;;;;9.38;6.12;;;;;;;2.22;51.33;100688.78;7709626;32;40835;-86
2023/03/17 06:08:44;;;;;;;11.27;6.20;;;;;;;2.43;51.13;100695.16;7712821;32;37873;-85
2023/03/17 06:13:01;;;;;;;12.07;6.65;;;;;;;2.60;51.40;100696.56;7712793;32;37026;-87
2023/03/17 06:17:19;;;;;;;15.30;6.78;;;;;;;2.72;50.69;100698.69;7712646;32;38204;-86
2023/03/17 06:21:35;;;;;;;12.18;6.07;;;;;;;2.92;50.10;100694.25;7712571;32;40694;-86
2023/03/17 06:25:52;;;;;;;14.20;6.60;;;;;;;3.19;49.41;100699.75;7712680;32;38441;-86
2023/03/17 06:30:09;;;;;;;18.00;7.10;;;;;;;3.40;48.36;100706.91;7712578;32;36993;-87
2023/03/17 06:34:25;;;;;;;12.85;5.95;;;;;;;3.53;48.05;100700.69;7712496;32;40229;-86
2023/03/17 06:38:42;;;;;;;12.82;5.70;;;;;;;3.58;48.12;100699.03;7712300;32;40841;-86
2023/03/17 06:43:00;;;;;;;12.93;6.82;;;;;;;3.72;48.16;100705.31;7712441;32;39390;-85
2023/03/17 06:47:17;;;;;;;11.65;6.07;;;;;;;3.46;49.38;100710.63;7712648;32;36343;-85
2023/03/17 06:51:36;;;;;;;14.90;6.72;;;;;;;4.01;48.05;100707.84;7712313;32;38955;-86
2023/03/17 06:55:52;;;;;;;15.70;6.22;;;;;;;4.31;47.46;100713.66;7712217;32;39802;-86
2023/03/17 07:00:11;;;;;;;13.73;5.12;;;;;;;4.43;47.45;100711.19;7712045;32;37945;-86
2023/03/17 07:04:27;;;;;;;10.73;5.55;;;;;;;4.94;44.41;100717.75;7712379;32;35935;-86
2023/03/17 07:08:45;;;;;;;9.88;4.78;;;;;;;5.25;43.17;100722.44;7712201;32;39038;-86
2023/03/17 07:13:02;;;;;;;8.15;4.25;;;;;;;5.84;41.77;100712.34;7711901;32;40677;-86
2023/03/17 07:17:19;;;;;;;8.45;4.07;;;;;;;6.29;37.84;100716.88;7711602;32;38583;-86
2023/03/17 07:21:35;;;;;;;7.40;4.57;;;;;;;6.29;36.85;100714.97;7711971;32;37319;-86
2023/03/17 07:25:51;;;;;;;7.57;4.18;;;;;;;6.45;35.45;100712.75;7711687;32;40111;-85
2023/03/17 07:30:09;;;;;;;8.30;4.35;;;;;;;7.30;34.32;100709.38;7712047;32;41151;-86
2023/03/17 07:34:27;;;;;;;9.07;4.43;;;;;;;7.49;33.87;100716.44;7698105;32;39141;-85
2023/03/17 07:38:43;;;;;;;8.35;4.40;;;;;;;7.61;33.79;100716.50;7697759;32;37881;-85
2023/03/17 07:42:59;;;;;;;10.52;4.28;;;;;;;7.51;33.14;100708.88;7697899;32;39395;-86
2023/03/17 07:47:15;;;;;;;7.93;4.05;;;;;;;7.94;33.61;100703.50;7711552;32;40026;-85
2023/03/17 07:51:32;;;;;;;8.02;4.43;;;;;;;7.83;32.58;100708.66;7711551;32;38509;-85
2023/03/17 07:55:48;;;;;;;6.70;4.07;;;;;;;8.51;33.09;100698.41;7711521;32;37101;-85
2023/03/17 08:00:09;;;;;;;10.32;4.07;;;;;;;8.23;32.31;100704.53;7711500;32;39201;-85
2023/03/17 08:04:27;;;;;;;13.55;4.75;;;;;;;8.77;31.04;100707.16;7698361;32;40817;-85
2023/03/17 08:08:44;;;;;;;8.63;4.00;;;;;;;8.93;31.37;100692.84;7704342;32;220056;-85
2023/03/17 08:13:01;;;;;;;9.45;4.50;;;;;;;9.16;31.02;100694.69;7711272;32;37243;-85
2023/03/17 08:17:17;;;;;;;11.63;4.68;;;;;;;9.08;31.26;100696.97;7710915;32;39391;-85
2023/03/17 08:21:34;;;;;;;11.57;4.30;;;;;;;9.47;30.84;100689.88;7711223;32;39577;-85
2023/03/17 08:25:55;;;;;;;7.97;4.25;;;;;;;9.79;29.82;100686.66;7710910;32;38623;-86
2023/03/17 08:30:12;;;;;;;11.07;4.20;;;;;;;9.78;30.23;100691.28;7710642;32;37243;-85
2023/03/17 08:34:30;;;;;;;7.65;3.28;;;;;;;10.10;29.01;100696.19;7711112;32;39598;-85
2023/03/17 08:38:47;;;;;;;8.45;3.83;;;;;;;9.78;27.12;100693.19;7710888;32;40776;-85
2023/03/17 08:43:03;;;;;;;8.73;3.10;;;;;;;10.00;28.01;100679.66;7710636;32;37947;-85
2023/03/17 08:47:20;;;;;;;7.03;3.40;;;;;;;10.26;25.86;100677.34;7710759;32;37796;-85
2023/03/17 08:51:39;;;;;;;5.37;2.92;;;;;;;10.35;27.24;100678.66;7710570;32;40158;-84
2023/03/17 08:55:56;;;;;;;6.43;3.47;;;;;;;10.15;25.52;100679.91;7710862;32;41121;-85
2023/03/17 09:00:14;;;;;;;7.53;3.10;;;;;;;10.02;23.05;100682.97;7710279;32;38785;-84
2023/03/17 09:04:31;;;;;;;10.63;2.80;;;;;;;10.12;25.55;100680.44;7710309;32;37596;-85
2023/03/17 09:08:54;;;;;;;5.93;3.10;;;;;;;10.32;26.41;100687.31;7710353;32;39391;-85
2023/03/17 09:13:12;;;;;;;7.70;3.33;;;;;;;10.71;26.34;100682.72;7710194;32;39732;-86
2023/03/17 09:17:29;;;;;;;5.25;3.00;;;;;;;10.13;24.98;100687.50;7709387;32;38579;-85
2023/03/17 09:21:47;;;;;;;9.38;2.87;;;;;;;10.30;25.40;100681.25;7709952;32;37141;-85
2023/03/17 09:26:04;;;;;;;31.10;12.98;;;;;;;10.75;23.25;100688.50;7709794;32;39865;-85
2023/03/17 09:30:20;;;;;;;5.35;3.10;;;;;;;10.47;23.16;100676.66;7709643;32;39774;-85
2023/03/17 09:34:37;;;;;;;7.20;2.60;;;;;;;10.69;24.74;100678.59;7709312;32;38007;-84
2023/03/17 09:38:55;;;;;;;9.98;2.90;;;;;;;11.40;23.16;100672.38;7709689;32;38082;-85
2023/03/17 09:43:41;;;;;;;6.10;2.37;;;;;;;11.10;22.43;100673.69;7712972;32;39932;-85
2023/03/17 09:48:42;;;;;;;6.12;2.60;;;;;;;11.72;21.80;100674.37;7713030;32;40781;-85
2023/03/17 09:53:00;;;;;;;5.72;2.58;;;;;;;11.76;22.10;100659.12;7709658;32;38677;-85
2023/03/17 09:57:35;;;;;;;6.32;3.00;;;;;;;12.07;21.03;100656.69;7712740;32;37773;-84
2023/03/17 10:01:51;;;;;;;8.75;2.85;;;;;;;11.98;22.21;100646.22;7712838;32;39395;-84
2023/03/17 10:06:23;;;;;;;5.07;2.72;;;;;;;12.43;21.20;100644.13;7712965;32;40681;-84
2023/03/17 10:10:47;;;;;;;9.10;3.08;;;;;;;12.40;20.61;100637.28;7699763;32;38921;-84
2023/03/17 10:15:26;;;;;;;5.43;2.40;;;;;;;12.91;20.07;100627.69;7712403;32;37203;-83
2023/03/17 10:19:56;;;;;;;4.43;2.50;;;;;;;13.13;20.19;100628.34;7700741;32;39381;-85
2023/03/17 10:24:13;;;;;;;6.10;2.95;;;;;;;12.77;19.95;100630.09;7712051;32;40845;-85
2023/03/17 10:28:37;;;;;;;10.82;3.12;;;;;;;13.32;19.96;100622.41;7698468;32;38108;-85
2023/03/17 10:32:58;;;;;;;6.95;2.70;;;;;;;13.65;18.03;100623.84;7712387;32;37094;-84
2023/03/17 10:37:18;;;;;;;8.43;3.08;;;;;;;14.24;19.51;100616.16;7698818;32;40068;-84
2023/03/17 10:41:40;;;;;;;7.12;2.90;;;;;;;14.54;18.46;100618.03;7712264;32;39903;-84
2023/03/17 10:46:03;;;;;;;24.02;4.15;;;;;;;14.82;17.56;100613.06;7712115;32;38703;-84
2023/03/17 10:50:31;;;;;;;8.95;3.70;;;;;;;15.20;18.89;100602.44;7711986;32;37259;-85
2023/03/17 10:54:50;;;;;;;8.45;3.95;;;;;;;14.86;17.79;100607.81;7712162;32;39805;-84
2023/03/17 10:59:13;;;;;;;8.35;3.47;;;;;;;14.54;19.08;100604.31;7712038;32;40909;-84
2023/03/17 11:03:37;;;;;;;7.25;3.70;;;;;;;14.65;18.04;100588.69;7711889;32;37795;-84
2023/03/17 11:08:06;;;;;;;9.50;3.15;;;;;;;15.07;17.55;100576.41;7698526;32;37962;-85
2023/03/17 11:12:38;;;;;;;8.93;3.80;;;;;;;15.23;18.64;100568.09;7712081;32;39322;-85
2023/03/17 11:16:57;;;;;;;10.65;3.90;;;;;;;15.13;17.89;100558.81;7711898;32;40820;-84
2023/03/17 11:21:29;;;;;;;6.82;3.33;;;;;;;15.81;18.10;100554.50;7683787;32;37580;-84
2023/03/17 11:25:48;;;;;;;8.60;3.47;;;;;;;15.44;17.57;100546.81;7684076;32;37712;-84
2023/03/17 11:30:15;;;;;;;9.18;3.70;;;;;;;16.14;17.35;100538.25;7685432;32;39311;-84
2023/03/17 11:34:35;;;;;;;7.93;3.33;;;;;;;16.27;16.22;100536.75;7684436;32;39891;-84
2023/03/17 11:39:32;;;;;;;8.38;3.30;;;;;;;16.04;16.53;100525.44;7685069;32;38738;-85
2023/03/17 11:44:11;;;;;;;7.03;2.70;;;;;;;15.82;16.79;100511.34;7612610;32;37866;-85
2023/03/17 11:48:52;;;;;;;7.07;2.75;;;;;;;15.90;17.83;100505.19;7684995;32;40168;-86
2023/03/17 11:53:15;;;;;;;4.72;2.58;;;;;;;15.73;16.84;100492.69;7683925;32;39917;-84
2023/03/17 11:57:46;;;;;;;;;;;;;;;16.56;15.39;100472.53;7685224;32;38744;-85
2023/03/17 12:02:29;;;;;;;8.73;2.70;;;;;;;16.61;16.13;100464.22;7684556;32;35456;-84
2023/03/17 12:06:51;;;;;;;5.93;2.80;;;;;;;17.19;15.34;100463.94;7684732;32;39404;-84
2023/03/17 12:11:19;;;;;;;5.47;2.40;;;;;;;16.76;15.32;100465.94;7683637;32;40772;-85
2023/03/17 12:15:42;;;;;;;6.78;2.72;;;;;;;17.12;15.68;100457.19;7683445;32;37990;-85
2023/03/17 12:20:21;;;;;;;4.10;2.50;;;;;;;16.86;16.50;100463.91;7701997;32;37886;-85
2023/03/17 12:25:06;;;;;;;5.05;2.80;;;;;;;16.84;15.34;100449.63;7711105;32;40237;-85
2023/03/17 12:29:24;;;;;;;8.68;3.00;;;;;;;16.92;15.62;100450.91;7704264;32;39881;-85
2023/03/17 12:33:49;;;;;;;5.85;2.55;;;;;;;17.80;14.00;100444.75;7710828;32;38674;-85
2023/03/17 12:38:09;;;;;;;7.93;3.05;;;;;;;18.06;14.69;100433.22;7698081;32;36974;-85
2023/03/17 12:42:41;;;;;;;6.82;2.78;;;;;;;17.10;14.37;100438.22;7710937;32;41077;-85
2023/03/17 12:47:05;;;;;;;;;;;;;;;16.01;15.39;100442.69;7710982;32;40124;-85
2023/03/17 12:51:38;;;;;;;6.00;2.70;;;;;;;16.89;15.79;100426.69;7711019;32;38982;-85
2023/03/17 12:56:06;;;;;;;6.20;3.00;;;;;;;16.42;15.18;100426.50;7710590;32;37050;-85
2023/03/17 13:00:30;;;;;;;4.43;2.90;;;;;;;16.13;15.22;100426.59;7698023;32;38873;-85
2023/03/17 13:05:08;;;;;;;8.10;3.12;;;;;;;15.44;15.91;100428.66;7696902;32;39851;-85
2023/03/17 13:09:42;;;;;;;7.85;3.25;;;;;;;16.09;16.44;100415.38;7684334;32;38685;-84
2023/03/17 13:14:40;;;;;;;6.78;2.87;;;;;;;16.33;15.02;100414.50;7712956;32;37825;-84
2023/03/17 13:19:25;;;;;;;6.78;2.85;;;;;;;16.74;16.92;100402.94;7682061;32;39178;-84
2023/03/17 13:23:57;;;;;;;4.60;2.70;;;;;;;16.76;15.30;100405.38;7718405;32;39554;-85
2023/03/17 13:28:40;;;;;;;5.97;2.92;;;;;;;16.94;15.99;100417.56;7718781;32;37974;-85
2023/03/17 13:33:09;;;;;;;6.72;2.70;;;;;;;17.01;15.56;100417.97;7707873;32;37024;-85
2023/03/17 13:38:11;;;;;;;5.18;2.90;;;;;;;17.06;14.98;100420.66;7706457;32;39117;-85
2023/03/17 13:42:42;;;;;;;7.05;2.97;;;;;;;17.28;15.33;100411.72;7659275;32;40549;-85
2023/03/17 13:47:28;;;;;;;10.40;3.37;;;;;;;16.46;14.91;100408.28;7718160;32;38696;-86
2023/03/17 13:51:51;;;;;;;6.97;3.15;;;;;;;15.82;16.47;100404.94;7706520;32;35391;-85
2023/03/17 13:56:21;;;;;;;4.78;2.90;;;;;;;16.56;15.41;100392.72;7705381;32;39238;-85
2023/03/17 14:00:48;;;;;;;6.03;3.20;;;;;;;16.65;16.87;100382.69;7705129;32;40787;-86
2023/03/17 14:05:18;;;;;;;10.55;3.25;;;;;;;16.83;14.75;100370.88;7704889;32;37942;-86
2023/03/17 14:09:40;;;;;;;5.53;3.10;;;;;;;17.03;14.47;100355.97;7705363;32;37493;-86
2023/03/17 14:14:28;;;;;;;5.05;3.00;;;;;;;17.18;14.91;100346.63;7717992;32;38953;-85
2023/03/17 14:18:54;;;;;;;5.85;2.90;;;;;;;17.25;14.85;100349.78;7706240;32;39604;-86
2023/03/17 14:23:11;;;;;;;9.52;3.17;;;;;;;17.87;14.74;100351.41;7704302;32;38098;-86
2023/03/17 14:27:32;;;;;;;7.18;3.50;;;;;;;17.73;14.31;100350.56;7713111;32;36323;-85
2023/03/17 14:31:57;;;;;;;5.35;3.05;;;;;;;17.12;14.95;100342.31;7712574;32;39395;-85
2023/03/17 14:36:17;;;;;;;8.70;3.40;;;;;;;16.68;15.70;100332.56;7699843;32;40598;-86
2023/03/17 14:40:35;;;;;;;7.82;3.25;;;;;;;16.71;15.59;100335.53;7712400;32;38054;-85
2023/03/17 14:45:07;;;;;;;6.30;3.22;;;;;;;16.91;15.44;100330.03;7699550;32;36949;-85
2023/03/17 14:49:23;;;;;;;9.98;3.45;;;;;;;17.07;15.18;100325.88;7712254;32;39386;-85
2023/03/17 14:53:42;;;;;;;6.80;2.97;;;;;;;17.23;15.18;100324.50;7698514;32;40783;-84
2023/03/17 14:58:04;;;;;;;6.95;3.22;;;;;;;17.51;15.56;100321.75;7698688;32;37741;-85
2023/03/17 15:02:31;;;;;;;5.57;3.25;;;;;;;17.48;14.50;100310.53;7699511;32;37796;-85
2023/03/17 15:06:58;;;;;;;8.07;3.58;;;;;;;17.33;14.70;100314.38;7712167;32;39120;-85
2023/03/17 15:11:21;;;;;;;6.35;2.83;;;;;;;17.90;14.50;100303.09;7712016;32;39873;-84
2023/03/17 15:15:40;;;;;;;8.77;3.72;;;;;;;16.96;14.63;100289.44;7712017;32;38569;-85
2023/03/17 15:20:00;;;;;;;5.62;3.08;;;;;;;17.22;15.14;100281.50;7683932;32;37884;-85
2023/03/17 15:24:24;;;;;;;5.78;2.97;;;;;;;17.22;15.68;100281.50;7684191;32;39133;-85
2023/03/17 15:28:41;;;;;;;6.70;3.03;;;;;;;16.94;15.42;100285.34;7685267;32;39881;-85
2023/03/17 15:33:01;;;;;;;10.63;4.75;;;;;;;16.49;15.75;100286.59;7685110;32;37989;-85
2023/03/17 15:37:21;;;;;;;9.52;4.15;;;;;;;16.40;15.94;100280.16;7684004;32;37546;-85
2023/03/17 15:41:41;;;;;;;10.48;4.30;;;;;;;16.43;16.12;100271.28;7685375;32;38089;-85
2023/03/17 15:46:02;;;;;;;7.90;3.55;;;;;;;16.35;15.60;100274.72;7684836;32;38998;-84
2023/03/17 15:50:31;;;;;;;11.12;3.95;;;;;;;15.13;17.66;100286.12;7683672;32;37877;-85
2023/03/17 15:54:48;;;;;;;9.32;3.60;;;;;;;16.06;16.49;100267.44;7684933;32;37320;-84
2023/03/17 15:59:04;;;;;;;6.22;3.53;;;;;;;16.15;16.14;100271.13;7685008;32;39326;-85
2023/03/17 16:03:36;;;;;;;5.68;2.90;;;;;;;16.49;15.39;100270.09;7684499;32;40069;-84
2023/03/17 16:07:54;;;;;;;8.25;3.53;;;;;;;15.90;15.78;100268.75;7684750;32;38279;-79
2023/03/17 16:12:14;;;;;;;7.82;3.37;;;;;;;15.95;17.55;100275.00;7684481;32;37018;-87
2023/03/17 16:16:32;;;;;;;8.05;3.58;;;;;;;15.94;17.27;100273.38;7684555;32;39543;-88
2023/03/17 16:20:52;;;;;;;8.68;4.50;;;;;;;16.28;16.16;100274.25;7682502;32;39782;-86
2023/03/17 16:25:29;;;;;;;9.93;5.25;;;;;;;15.79;16.81;100281.00;7684365;32;37941;-86
2023/03/17 16:29:47;;;;;;;17.10;5.68;;;;;;;16.08;16.68;100281.69;7682480;32;37242;-87
2023/03/17 16:34:16;;;;;;;10.88;5.43;;;;;;;16.59;16.38;100274.63;7703713;32;38813;-87
2023/03/17 16:38:33;;;;;;;8.00;3.87;;;;;;;16.88;16.24;100282.69;7680458;32;40781;-84
2023/03/17 16:42:50;;;;;;;8.38;3.62;;;;;;;16.12;16.43;100287.44;7682974;32;37810;-74
2023/03/17 16:47:08;;;;;;;9.52;4.12;;;;;;;15.37;17.93;100286.97;7672931;32;37667;-85
2023/03/17 16:51:24;;;;;;;7.57;3.78;;;;;;;14.06;18.98;100299.53;7709051;32;39082;-87
2023/03/17 16:55:43;;;;;;;11.50;3.70;;;;;;;13.84;19.11;100298.00;7683506;32;39912;-86
2023/03/17 16:59:59;;;;;;;7.70;3.87;;;;;;;13.82;19.79;100299.38;7701674;32;38702;-88
2023/03/17 17:04:16;;;;;;;9.45;3.85;;;;;;;13.67;19.98;100292.03;7688847;32;37886;-87
2023/03/17 17:08:32;;;;;;;6.20;3.67;;;;;;;13.20;20.50;100285.84;7683728;32;39097;-86
2023/03/17 17:12:49;;;;;;;6.43;3.28;;;;;;;12.83;20.69;100302.59;7683064;32;39939;-87
2023/03/17 17:17:05;;;;;;;8.77;3.67;;;;;;;12.68;21.18;100300.69;7707673;32;38739;-88
2023/03/17 17:21:22;;;;;;;7.97;3.62;;;;;;;12.43;21.69;100298.75;7724963;32;36750;-87
2023/03/17 17:25:38;;;;;;;6.75;3.55;;;;;;;12.19;21.61;100300.09;7710269;32;37984;-88
2023/03/17 17:29:54;;;;;;;9.00;3.95;;;;;;;12.06;21.88;100297.87;7709768;32;40769;-87
2023/03/17 17:34:13;;;;;;;7.28;3.80;;;;;;;12.02;22.01;100294.84;7707317;32;37694;-87
2023/03/17 17:38:29;;;;;;;8.25;4.35;;;;;;;11.91;22.16;100295.91;7709276;32;37075;-86
2023/03/17 17:42:45;;;;;;;17.80;7.50;;;;;;;11.77;22.66;100294.75;7707049;32;37987;-87
2023/03/17 17:47:02;;;;;;;17.05;7.50;;;;;;;11.33;23.17;100300.53;7708358;32;40786;-86
2023/03/17 17:51:20;;;;;;;9.00;5.07;;;;;;;11.58;22.93;100297.94;7708833;32;36869;-88
2023/03/17 17:55:40;;;;;;;12.65;5.53;;;;;;;11.18;24.22;100304.00;7708852;32;37079;-87
2023/03/17 17:59:57;;;;;;;10.55;5.10;;;;;;;11.18;24.52;100312.19;7708283;32;40071;-87
2023/03/17 18:04:14;;;;;;;10.13;5.10;;;;;;;11.16;24.88;100309.72;7712504;32;40020;-87
2023/03/17 18:08:30;;;;;;;11.30;5.05;;;;;;;10.79;25.22;100313.25;7711943;32;37919;-81
2023/03/17 18:12:47;;;;;;;10.20;5.20;;;;;;;10.65;27.87;100314.78;7722618;32;37113;-83
2023/03/17 18:17:06;;;;;;;13.93;4.93;;;;;;;10.70;26.14;100314.81;7727468;32;39243;-80
2023/03/17 18:21:22;;;;;;;12.25;5.07;;;;;;;10.22;26.92;100317.34;7707229;32;40824;-83
2023/03/17 18:25:39;;;;;;;9.73;5.05;;;;;;;10.09;26.98;100321.28;7710926;32;38108;-85
2023/03/17 18:29:56;;;;;;;12.82;5.15;;;;;;;10.30;26.76;100326.97;7707783;32;37509;-83
2023/03/17 18:34:21;;;;;;;10.95;5.55;;;;;;;9.98;27.49;100324.97;7696909;32;39304;-84
2023/03/17 18:38:39;;;;;;;11.73;5.45;;;;;;;9.94;27.34;100321.13;7710727;32;39937;-84
2023/03/17 18:42:55;;;;;;;11.35;6.32;;;;;;;10.00;27.54;100325.53;7693247;32;38935;-84
2023/03/17 18:47:14;;;;;;;12.95;5.78;;;;;;;9.59;28.27;100335.94;7711392;32;37796;-83
2023/03/17 18:51:33;;;;;;;11.20;5.57;;;;;;;9.69;28.25;100330.62;7732744;32;39346;-83
2023/03/17 18:55:49;;;;;;;11.30;5.43;;;;;;;9.52;28.60;100327.09;7711671;32;39996;-85
2023/03/17 19:00:09;;;;;;;10.18;5.70;;;;;;;9.62;28.67;100329.97;7711433;32;36924;-83
2023/03/17 19:04:25;;;;;;;12.95;6.53;;;;;;;9.66;28.67;100331.13;7696754;32;37146;-87
2023/03/17 19:08:42;;;;;;;10.52;5.78;;;;;;;9.49;29.17;100327.63;7697406;32;39996;-85
2023/03/17 19:12:58;;;;;;;11.50;5.95;;;;;;;9.21;29.44;100327.53;7678641;32;40695;-87
2023/03/17 19:17:15;;;;;;;18.17;6.75;;;;;;;9.15;29.79;100328.50;7721585;32;38715;-85
2023/03/17 19:21:32;;;;;;;12.77;6.32;;;;;;;8.97;30.29;100332.31;7713015;32;38368;-85
2023/03/17 19:25:48;;;;;;;11.80;6.22;;;;;;;8.82;31.72;100324.72;7710808;32;39243;-85
2023/03/17 19:30:05;;;;;;;15.20;5.90;;;;;;;8.86;30.62;100332.41;7710690;32;40827;-86
2023/03/17 19:34:22;;;;;;;11.02;6.05;;;;;;;8.69;31.01;100337.81;7683645;32;37722;-85
2023/03/17 19:38:38;;;;;;;14.13;6.18;;;;;;;9.08;31.62;100318.87;7710668;32;35552;-83
2023/03/17 19:42:55;;;;;;;12.95;6.05;;;;;;;8.73;31.19;100309.09;7709829;32;38755;-83
2023/03/17 19:47:12;;;;;;;15.88;6.40;;;;;;;8.62;31.00;100308.09;7711305;32;40101;-82
2023/03/17 19:51:29;;;;;;;11.77;6.35;;;;;;;8.50;31.33;100316.28;7710698;32;37932;-82
2023/03/17 19:55:45;;;;;;;15.88;6.57;;;;;;;8.18;31.67;100303.22;7710636;32;38111;-83
2023/03/17 20:00:02;;;;;;;14.00;6.20;;;;;;;8.49;33.25;100303.81;7710846;32;40107;-83
2023/03/17 20:04:20;;;;;;;13.50;6.82;;;;;;;8.13;31.89;100299.59;7720557;32;39892;-82
2023/03/17 20:08:37;;;;;;;12.10;6.00;;;;;;;8.24;31.82;100298.69;7728807;32;36849;-83
2023/03/17 20:12:54;;;;;;;14.00;6.57;;;;;;;8.10;31.85;100300.88;7710252;32;38430;-83
2023/03/17 20:17:11;;;;;;;18.00;7.40;;;;;;;7.99;32.21;100299.88;7710324;32;39296;-83